Time;durP1;ratioP1;P1;durP2;ratioP2;P2;SDS_P1;SDS_P2;PMS_P1;PMS_P2;Temp;Humidity;BMP_temperature;BMP_pressure;BME280_temperature;BME280_humidity;BME280_pressure;Samples;Min_cycle;Max_cycle;Signal;HPM_P1;HPM_P2
2023/07/07 00:01:15;;;;;;;2.80;1.30;;;17.00;99.90;;;;;;5022145;28;20031;-71
2023/07/07 00:03:41;;;;;;;1.58;1.13;;;16.90;99.90;;;;;;5022101;28;20037;-71
2023/07/07 00:06:06;;;;;;;2.95;1.42;;;17.00;99.90;;;;;;5039310;28;20021;-71
2023/07/07 00:08:32;;;;;;;1.73;1.35;;;17.10;99.90;;;;;;5023051;28;20071;-72
2023/07/07 00:10:59;;;;;;;2.30;1.15;;;17.10;99.90;;;;;;5021800;28;20032;-71
2023/07/07 00:13:25;;;;;;;2.65;1.50;;;17.20;99.90;;;;;;5021734;28;20022;-71
2023/07/07 00:15:57;;;;;;;4.88;1.10;;;17.20;99.90;;;;;;5039173;28;20065;-71
2023/07/07 00:18:26;;;;;;;2.15;1.20;;;17.20;99.90;;;;;;5021439;28;20072;-71
2023/07/07 00:20:55;;;;;;;2.80;0.98;;;17.00;99.90;;;;;;5021667;28;20030;-71
2023/07/07 00:23:21;;;;;;;1.35;0.95;;;17.10;99.90;;;;;;5022443;28;20092;-71
2023/07/07 00:25:58;;;;;;;1.48;1.13;;;17.10;99.90;;;;;;5038959;28;20033;-71
2023/07/07 00:28:23;;;;;;;4.30;1.20;;;17.10;99.90;;;;;;5022417;28;20021;-71
2023/07/07 00:30:49;;;;;;;4.45;1.60;;;17.10;99.90;;;;;;5021532;28;20032;-71
2023/07/07 00:33:14;;;;;;;4.07;1.40;;;17.00;99.90;;;;;;5021382;28;20033;-71
2023/07/07 00:35:46;;;;;;;1.98;1.20;;;16.90;99.90;;;;;;5022439;28;20029;-71
2023/07/07 00:38:12;;;;;;;3.20;1.60;;;16.80;99.90;;;;;;5021441;28;20030;-71
2023/07/07 00:40:38;;;;;;;3.38;1.30;;;16.80;99.90;;;;;;5021561;28;20052;-71
2023/07/07 00:43:13;;;;;;;2.42;1.17;;;16.80;99.90;;;;;;5038967;28;20116;-71
2023/07/07 00:45:38;;;;;;;2.17;1.30;;;16.70;99.90;;;;;;5021177;28;20053;-71
2023/07/07 00:48:14;;;;;;;7.65;1.48;;;16.70;99.90;;;;;;5021201;28;20064;-71
2023/07/07 00:50:47;;;;;;;1.95;1.30;;;16.60;99.90;;;;;;5021652;28;20114;-72
2023/07/07 00:53:13;;;;;;;2.72;1.60;;;16.80;99.90;;;;;;5021745;28;20025;-71
2023/07/07 00:55:49;;;;;;;3.53;1.63;;;16.80;99.90;;;;;;5021364;28;20099;-71
2023/07/07 00:58:19;;;;;;;3.67;1.52;;;16.70;99.90;;;;;;5038369;28;20025;-71
2023/07/07 01:00:49;;;;;;;1.48;1.15;;;16.60;99.90;;;;;;5020985;28;20037;-71
2023/07/07 01:03:22;;;;;;;2.67;1.60;;;16.50;99.90;;;;;;5021031;28;20033;-71
2023/07/07 01:05:49;;;;;;;2.78;1.20;;;16.60;99.90;;;;;;5021172;28;20116;-71
2023/07/07 01:08:16;;;;;;;1.83;1.10;;;16.50;99.90;;;;;;5038501;28;20064;-71
2023/07/07 01:10:41;;;;;;;2.60;1.48;;;16.40;99.90;;;;;;5021472;28;20072;-71
2023/07/07 01:13:07;;;;;;;5.13;1.92;;;16.40;99.90;;;;;;5020740;28;20026;-71
2023/07/07 01:15:43;;;;;;;6.18;1.48;;;16.30;99.90;;;;;;5021270;28;20030;-71
2023/07/07 01:18:27;;;;;;;4.65;1.30;;;16.20;99.90;;;;;;5020957;28;20029;-71
2023/07/07 01:21:02;;;;;;;2.30;1.40;;;16.20;99.90;;;;;;5021661;28;20037;-71
2023/07/07 01:23:58;;;;;;;4.30;1.40;;;16.20;99.90;;;;;;5020616;28;20057;-71
2023/07/07 01:26:53;;;;;;;2.30;1.38;;;16.20;99.90;;;;;;5021566;28;20050;-71
2023/07/07 01:29:27;;;;;;;5.85;1.50;;;16.20;99.90;;;;;;5020571;28;20095;-71
2023/07/07 01:32:13;;;;;;;3.55;1.50;;;16.10;99.90;;;;;;5038191;28;20030;-71
2023/07/07 01:34:40;;;;;;;4.82;1.27;;;16.10;99.90;;;;;;5021714;28;20049;-71
2023/07/07 01:37:05;;;;;;;9.05;1.42;;;16.20;99.90;;;;;;5037671;28;20028;-71
2023/07/07 01:39:31;;;;;;;4.30;1.25;;;16.20;99.90;;;;;;5020884;28;20026;-71
2023/07/07 01:42:01;;;;;;;2.40;1.20;;;16.20;99.90;;;;;;5020087;28;20017;-71
2023/07/07 01:44:37;;;;;;;5.70;1.20;;;16.20;99.90;;;;;;5020831;28;20096;-71
2023/07/07 01:47:16;;;;;;;2.13;1.10;;;16.20;99.90;;;;;;5020821;28;20025;-72
2023/07/07 01:49:56;;;;;;;2.85;1.40;;;16.20;99.90;;;;;;5020411;28;20052;-72
2023/07/07 01:52:44;;;;;;;2.20;1.08;;;16.10;99.90;;;;;;5020825;28;20082;-72
2023/07/07 01:55:23;;;;;;;2.45;1.30;;;16.20;99.90;;;;;;5020898;28;20033;-72
2023/07/07 01:57:53;;;;;;;5.20;1.95;;;16.10;99.90;;;;;;5019990;28;20025;-72
2023/07/07 02:00:19;;;;;;;2.55;1.42;;;16.10;99.90;;;;;;5020879;28;20028;-72
2023/07/07 02:02:45;;;;;;;1.65;1.13;;;16.10;99.90;;;;;;5020060;28;20037;-72
2023/07/07 02:05:12;;;;;;;7.70;1.60;;;16.20;99.90;;;;;;5020685;28;20179;-72
2023/07/07 02:07:38;;;;;;;3.80;1.55;;;16.20;99.90;;;;;;5020277;28;20100;-71
2023/07/07 02:10:05;;;;;;;1.80;1.30;;;16.00;99.90;;;;;;5020022;28;20044;-71
2023/07/07 02:12:30;;;;;;;2.88;1.38;;;15.80;99.90;;;;;;5020098;28;20021;-71
2023/07/07 02:14:56;;;;;;;3.83;1.35;;;15.90;99.90;;;;;;5019748;28;20028;-72
2023/07/07 02:17:21;;;;;;;2.75;1.42;;;15.80;99.90;;;;;;5020626;28;20115;-71
2023/07/07 02:19:47;;;;;;;2.70;1.52;;;15.80;99.90;;;;;;5020473;28;20057;-71
2023/07/07 02:22:13;;;;;;;4.45;1.48;;;15.60;99.90;;;;;;5019750;28;20025;-71
2023/07/07 02:24:38;;;;;;;4.43;1.70;;;15.50;99.90;;;;;;5019748;28;20025;-72
2023/07/07 02:27:04;;;;;;;3.63;1.40;;;15.50;99.90;;;;;;5019835;28;20018;-72
2023/07/07 02:29:30;;;;;;;2.30;1.42;;;15.40;99.90;;;;;;5019779;28;20028;-72
2023/07/07 02:31:55;;;;;;;4.15;1.90;;;15.30;99.90;;;;;;5019910;28;20026;-72
2023/07/07 02:34:21;;;;;;;5.20;1.25;;;15.30;99.90;;;;;;5019973;28;20033;-72
2023/07/07 02:36:46;;;;;;;6.40;1.45;;;15.40;99.90;;;;;;5019688;28;20030;-72
2023/07/07 02:39:12;;;;;;;4.90;1.77;;;15.30;99.90;;;;;;5020550;28;20026;-71
2023/07/07 02:41:38;;;;;;;2.42;1.48;;;15.30;99.90;;;;;;5022972;28;20026;-71
2023/07/07 02:44:03;;;;;;;3.40;1.33;;;15.30;99.90;;;;;;5023675;28;20025;-72
2023/07/07 02:46:29;;;;;;;4.25;1.45;;;15.20;99.90;;;;;;5023786;28;20025;-72
2023/07/07 02:48:55;;;;;;;3.25;1.50;;;15.30;99.90;;;;;;5024169;28;20163;-72
2023/07/07 02:51:20;;;;;;;1.17;0.98;;;15.30;99.90;;;;;;5023751;28;20014;-72
2023/07/07 02:53:46;;;;;;;3.00;1.63;;;15.30;99.90;;;;;;5023293;28;20030;-71
2023/07/07 02:56:11;;;;;;;3.13;1.83;;;15.20;99.90;;;;;;5024091;28;20124;-71
2023/07/07 02:58:37;;;;;;;2.40;1.63;;;15.10;99.90;;;;;;5023444;28;20051;-71
2023/07/07 03:01:10;;;;;;;3.20;1.60;;;15.00;99.90;;;;;;5023475;28;20053;-71
2023/07/07 03:03:42;;;;;;;3.42;1.52;;;15.00;99.90;;;;;;5023319;28;20092;-72
2023/07/07 03:06:11;;;;;;;4.03;1.58;;;15.00;99.90;;;;;;5023502;28;20025;-71
2023/07/07 03:08:37;;;;;;;3.10;1.55;;;15.10;99.90;;;;;;5023245;28;20041;-71
2023/07/07 03:11:08;;;;;;;5.15;1.58;;;15.10;99.90;;;;;;5023194;28;20021;-71
2023/07/07 03:13:33;;;;;;;2.63;1.70;;;15.10;99.90;;;;;;5023698;28;20025;-71
2023/07/07 03:16:10;;;;;;;3.20;1.42;;;15.10;99.90;;;;;;5022937;28;20087;-71
2023/07/07 03:18:36;;;;;;;3.60;1.70;;;14.90;99.90;;;;;;5022854;28;20053;-71
2023/07/07 03:21:01;;;;;;;3.10;1.35;;;15.20;99.90;;;;;;5023118;28;20021;-72
2023/07/07 03:23:27;;;;;;;2.25;1.30;;;15.20;99.90;;;;;;5023533;28;20028;-71
2023/07/07 03:25:53;;;;;;;5.53;1.90;;;15.10;99.90;;;;;;5022996;28;20017;-71
2023/07/07 03:28:18;;;;;;;6.07;1.42;;;15.10;99.90;;;;;;5022998;28;20022;-71
2023/07/07 03:30:44;;;;;;;6.90;1.50;;;15.10;99.90;;;;;;5023852;28;20022;-71
2023/07/07 03:33:11;;;;;;;9.15;1.40;;;15.00;99.90;;;;;;5022594;28;20017;-71
2023/07/07 03:35:36;;;;;;;4.75;1.67;;;15.10;99.90;;;;;;5022971;28;20022;-71
2023/07/07 03:38:02;;;;;;;2.63;1.45;;;14.90;99.90;;;;;;5022676;28;20031;-71
2023/07/07 03:40:27;;;;;;;3.58;1.30;;;15.00;99.90;;;;;;5023275;28;20041;-72
2023/07/07 03:42:53;;;;;;;2.55;1.40;;;15.00;99.90;;;;;;5023028;28;20032;-72
2023/07/07 03:45:18;;;;;;;2.65;1.48;;;15.00;99.90;;;;;;5023132;28;20025;-71
2023/07/07 03:47:44;;;;;;;4.03;1.70;;;15.00;99.90;;;;;;5022761;28;20037;-71
2023/07/07 03:50:10;;;;;;;3.42;1.70;;;15.00;99.90;;;;;;5023142;28;20018;-71
2023/07/07 03:52:35;;;;;;;7.38;1.60;;;14.90;99.90;;;;;;5021774;28;20060;-71
2023/07/07 03:55:02;;;;;;;6.10;2.05;;;14.80;99.90;;;;;;5022705;28;20033;-71
2023/07/07 03:57:28;;;;;;;2.40;1.25;;;14.80;99.90;;;;;;5022653;28;20026;-71
2023/07/07 03:59:53;;;;;;;1.80;1.25;;;14.70;99.90;;;;;;5022455;28;20033;-71
2023/07/07 04:02:19;;;;;;;2.17;1.23;;;14.80;99.90;;;;;;5022821;28;20029;-72
2023/07/07 04:04:45;;;;;;;3.70;1.55;;;14.90;99.90;;;;;;5022035;28;20034;-72
2023/07/07 04:07:11;;;;;;;2.00;1.40;;;14.90;99.90;;;;;;5022539;28;20028;-71
2023/07/07 04:09:36;;;;;;;6.40;1.65;;;14.90;99.90;;;;;;5022261;28;20017;-71
2023/07/07 04:12:02;;;;;;;2.35;1.75;;;14.80;99.90;;;;;;5022292;28;20036;-71
2023/07/07 04:14:28;;;;;;;6.68;1.80;;;14.70;99.90;;;;;;5021976;28;20095;-72
2023/07/07 04:16:54;;;;;;;1.98;1.27;;;14.70;99.90;;;;;;5022175;28;20021;-71
2023/07/07 04:19:20;;;;;;;3.25;1.83;;;14.70;99.90;;;;;;5021881;28;20093;-72
2023/07/07 04:21:46;;;;;;;2.35;1.38;;;14.70;99.90;;;;;;5022289;28;20025;-72
2023/07/07 04:24:11;;;;;;;3.15;1.50;;;14.70;99.90;;;;;;5021657;28;20116;-71
2023/07/07 04:26:38;;;;;;;3.40;1.67;;;14.70;99.90;;;;;;5021916;28;20033;-71
2023/07/07 04:29:04;;;;;;;7.63;1.60;;;14.80;99.90;;;;;;5021715;28;20020;-71
2023/07/07 04:31:30;;;;;;;5.10;1.45;;;14.60;99.90;;;;;;5021840;28;20017;-71
2023/07/07 04:33:56;;;;;;;2.45;1.40;;;14.70;99.90;;;;;;5021701;28;20116;-71
2023/07/07 04:36:23;;;;;;;2.63;1.67;;;14.70;99.90;;;;;;5022272;28;20030;-71
2023/07/07 04:38:49;;;;;;;2.15;1.25;;;14.70;99.90;;;;;;5021670;28;20024;-72
2023/07/07 04:41:25;;;;;;;2.85;1.65;;;14.80;99.90;;;;;;5022332;28;20028;-71
2023/07/07 04:43:57;;;;;;;1.77;1.30;;;14.80;99.90;;;;;;5021939;28;20112;-71
2023/07/07 04:46:30;;;;;;;3.70;1.42;;;14.80;99.90;;;;;;5022174;28;20026;-72
2023/07/07 04:48:56;;;;;;;3.83;1.17;;;14.70;99.90;;;;;;5022141;28;20017;-72
2023/07/07 04:51:22;;;;;;;1.60;1.23;;;14.80;99.90;;;;;;5021452;28;20054;-72
2023/07/07 04:53:47;;;;;;;3.40;1.52;;;14.80;99.90;;;;;;5021791;28;20017;-72
2023/07/07 04:56:16;;;;;;;4.07;1.55;;;14.90;99.90;;;;;;5020940;28;20029;-72
2023/07/07 04:58:43;;;;;;;4.05;1.40;;;14.90;99.90;;;;;;5021712;28;20036;-72
2023/07/07 05:01:11;;;;;;;5.40;1.45;;;14.90;99.90;;;;;;5021810;28;20025;-72
2023/07/07 05:03:38;;;;;;;3.80;1.33;;;15.00;99.90;;;;;;5020125;28;20037;-71
2023/07/07 05:06:04;;;;;;;4.60;1.58;;;15.10;99.90;;;;;;5056247;23;20064;-69
2023/07/07 05:08:36;;;;;;;5.18;1.33;;;15.20;99.90;;;;;;5040350;28;20052;-68
2023/07/07 05:11:02;;;;;;;3.20;1.60;;;15.10;99.90;;;;;;5040948;28;20128;-69
2023/07/07 05:13:27;;;;;;;2.55;1.25;;;15.20;99.90;;;;;;5041326;28;20091;-69
2023/07/07 05:16:08;;;;;;;2.85;1.13;;;15.30;99.90;;;;;;5040261;28;20025;-69
2023/07/07 05:18:33;;;;;;;1.85;1.17;;;15.40;99.90;;;;;;5041059;28;20025;-69
2023/07/07 05:20:59;;;;;;;2.90;1.10;;;15.40;99.90;;;;;;5057807;28;20035;-69
2023/07/07 05:23:25;;;;;;;1.52;1.15;;;15.20;99.90;;;;;;5040336;28;20032;-68
2023/07/07 05:25:51;;;;;;;2.47;1.33;;;15.20;99.90;;;;;;5040120;28;20024;-69
2023/07/07 05:28:17;;;;;;;2.28;1.52;;;15.30;99.90;;;;;;5057826;28;20048;-69
2023/07/07 05:30:43;;;;;;;2.45;1.40;;;15.30;99.90;;;;;;5040526;28;20116;-69
2023/07/07 05:33:09;;;;;;;1.77;1.10;;;15.40;99.90;;;;;;5057622;28;20053;-69
2023/07/07 05:35:34;;;;;;;4.43;1.30;;;15.50;99.90;;;;;;5057446;28;20036;-69
2023/07/07 05:38:00;;;;;;;7.50;1.45;;;15.60;99.90;;;;;;5040002;28;20033;-69
2023/07/07 05:40:27;;;;;;;2.00;1.17;;;15.60;99.90;;;;;;5040030;28;20032;-69
2023/07/07 05:42:53;;;;;;;3.08;1.10;;;15.80;99.90;;;;;;5057535;28;20025;-69
2023/07/07 05:45:18;;;;;;;3.08;1.60;;;15.80;99.90;;;;;;5040094;28;20032;-69
2023/07/07 05:47:44;;;;;;;2.97;1.15;;;15.90;99.90;;;;;;5039796;28;20017;-69
2023/07/07 05:50:10;;;;;;;7.00;1.67;;;15.90;99.90;;;;;;5039930;28;20021;-69
2023/07/07 05:52:35;;;;;;;2.22;1.73;;;15.90;99.90;;;;;;5040138;28;20107;-69
2023/07/07 05:55:03;;;;;;;2.40;1.25;;;16.00;99.90;;;;;;5040039;28;20032;-69
2023/07/07 05:57:28;;;;;;;2.22;1.15;;;16.00;99.90;;;;;;5040179;28;20028;-69
2023/07/07 05:59:54;;;;;;;1.95;1.15;;;16.10;99.90;;;;;;5039711;28;20025;-69
2023/07/07 06:02:20;;;;;;;2.28;1.20;;;16.30;99.90;;;;;;5057125;28;20036;-69
2023/07/07 06:04:45;;;;;;;4.57;1.45;;;16.30;99.90;;;;;;5039363;28;20035;-69
2023/07/07 06:07:11;;;;;;;3.78;1.33;;;16.40;99.90;;;;;;5040495;28;20025;-69
2023/07/07 06:09:36;;;;;;;2.90;1.30;;;16.40;99.90;;;;;;5039518;28;20031;-69
2023/07/07 06:12:02;;;;;;;4.35;1.48;;;16.50;99.90;;;;;;5039828;28;20021;-69
2023/07/07 06:14:28;;;;;;;2.38;1.20;;;16.60;99.90;;;;;;5039605;28;20120;-69
2023/07/07 06:16:53;;;;;;;5.75;1.58;;;16.70;99.90;;;;;;5039921;28;20032;-69
2023/07/07 06:19:19;;;;;;;5.97;1.42;;;16.70;99.90;;;;;;5056865;28;20028;-69
2023/07/07 06:21:44;;;;;;;2.58;1.45;;;16.90;99.90;;;;;;5039683;28;20049;-69
2023/07/07 06:24:10;;;;;;;4.00;2.03;;;16.90;99.90;;;;;;5056796;28;20052;-69
2023/07/07 06:26:36;;;;;;;3.53;1.60;;;17.00;99.90;;;;;;5039864;28;20140;-69
2023/07/07 06:29:02;;;;;;;3.40;1.55;;;17.00;99.90;;;;;;5039625;28;20104;-69
2023/07/07 06:31:28;;;;;;;2.83;1.40;;;17.10;99.90;;;;;;5039301;28;20025;-69
2023/07/07 06:33:54;;;;;;;4.32;1.50;;;17.20;99.90;;;;;;5056934;28;20049;-70
2023/07/07 06:36:19;;;;;;;3.47;1.50;;;17.30;99.90;;;;;;5039729;28;20048;-70
2023/07/07 06:38:45;;;;;;;6.47;1.83;;;17.30;99.90;;;;;;5039658;28;20067;-70
2023/07/07 06:41:12;;;;;;;7.65;1.60;;;17.50;99.90;;;;;;5057219;28;20108;-70
2023/07/07 06:43:37;;;;;;;2.50;1.48;;;17.50;99.90;;;;;;5039922;28;20074;-70
2023/07/07 06:46:03;;;;;;;3.92;1.48;;;17.50;99.90;;;;;;5056610;28;20031;-70
2023/07/07 06:48:28;;;;;;;2.72;1.38;;;17.60;99.90;;;;;;5056757;28;20021;-70
2023/07/07 06:50:54;;;;;;;2.33;1.30;;;17.70;99.90;;;;;;5039457;28;20021;-70
2023/07/07 06:53:19;;;;;;;2.55;1.30;;;17.70;99.90;;;;;;5039507;28;20157;-70
2023/07/07 06:55:45;;;;;;;5.03;1.63;;;17.80;99.90;;;;;;5039552;28;20025;-70
2023/07/07 06:58:12;;;;;;;2.88;1.40;;;17.90;99.90;;;;;;5056745;28;20021;-70
2023/07/07 07:00:38;;;;;;;4.35;1.50;;;17.90;99.90;;;;;;5056741;28;20032;-69
2023/07/07 07:03:03;;;;;;;6.55;1.60;;;18.00;99.90;;;;;;5039101;28;20033;-69
2023/07/07 07:05:29;;;;;;;8.75;1.42;;;18.10;99.90;;;;;;5056529;28;20059;-69
2023/07/07 07:07:54;;;;;;;1.80;1.42;;;18.10;99.90;;;;;;5056683;28;20053;-69
2023/07/07 07:10:20;;;;;;;3.08;1.80;;;18.20;99.90;;;;;;5039096;28;20021;-69
2023/07/07 07:12:47;;;;;;;3.92;1.67;;;18.30;99.90;;;;;;5039370;28;20021;-69
2023/07/07 07:15:12;;;;;;;10.88;1.70;;;18.40;99.90;;;;;;5039703;28;20025;-70
2023/07/07 07:17:38;;;;;;;3.42;1.60;;;18.50;99.90;;;;;;5038986;28;20052;-70
2023/07/07 07:20:08;;;;;;;2.13;1.58;;;18.60;99.90;;;;;;5038992;28;20036;-70
2023/07/07 07:22:34;;;;;;;3.15;1.30;;;18.70;99.90;;;;;;5039168;28;20024;-70
2023/07/07 07:24:59;;;;;;;6.35;1.83;;;18.80;99.90;;;;;;5056261;28;20036;-70
2023/07/07 07:27:25;;;;;;;7.15;1.60;;;18.90;99.90;;;;;;5039985;28;20023;-70
2023/07/07 07:29:51;;;;;;;5.20;1.83;;;18.90;99.90;;;;;;5060307;28;20052;-70
2023/07/07 07:32:17;;;;;;;7.95;1.77;;;19.00;99.90;;;;;;5042834;28;20036;-70
2023/07/07 07:34:43;;;;;;;5.57;1.77;;;19.10;99.90;;;;;;5059889;28;20055;-70
2023/07/07 07:37:09;;;;;;;3.75;1.40;;;19.20;99.90;;;;;;5060035;28;20028;-70
2023/07/07 07:39:35;;;;;;;2.75;1.48;;;19.30;99.90;;;;;;5042223;28;20116;-70
2023/07/07 07:42:02;;;;;;;5.88;1.45;;;19.30;99.90;;;;;;5042791;28;20111;-71
2023/07/07 07:44:28;;;;;;;2.70;1.20;;;19.40;99.90;;;;;;5042193;28;20028;-70
2023/07/07 07:46:56;;;;;;;3.75;1.88;;;19.60;99.90;;;;;;5042408;28;20075;-71
2023/07/07 07:49:22;;;;;;;5.85;1.52;;;19.70;99.90;;;;;;5059579;28;20025;-70
2023/07/07 07:51:48;;;;;;;3.65;1.40;;;19.80;99.90;;;;;;5042027;28;20067;-70
2023/07/07 07:54:16;;;;;;;3.10;1.48;;;19.90;99.90;;;;;;5059782;28;20021;-71
2023/07/07 07:56:41;;;;;;;4.70;1.50;;;19.90;99.90;;;;;;5059654;28;20021;-70
2023/07/07 07:59:08;;;;;;;2.83;1.55;;;20.00;99.90;;;;;;5042392;28;20048;-70
2023/07/07 08:01:34;;;;;;;2.55;1.50;;;20.10;99.90;;;;;;5042550;28;20028;-69
2023/07/07 08:03:59;;;;;;;4.13;2.00;;;20.10;99.90;;;;;;5042008;28;20025;-68
2023/07/07 08:06:25;;;;;;;5.32;1.60;;;20.50;99.90;;;;;;5042031;28;20069;-68
2023/07/07 08:08:51;;;;;;;4.30;2.13;;;20.60;99.90;;;;;;5041756;28;20025;-68
2023/07/07 08:11:25;;;;;;;6.05;1.60;;;20.80;99.90;;;;;;5042907;28;20064;-69
2023/07/07 08:13:51;;;;;;;5.80;1.40;;;20.80;99.90;;;;;;5042082;28;20058;-68
2023/07/07 08:16:16;;;;;;;4.72;1.55;;;20.90;99.90;;;;;;5041683;28;20013;-67
2023/07/07 08:18:42;;;;;;;3.25;1.50;;;21.30;99.90;;;;;;5041782;28;20017;-69
2023/07/07 08:21:07;;;;;;;6.60;1.40;;;21.50;99.90;;;;;;5041692;28;20025;-68
2023/07/07 08:23:33;;;;;;;4.22;1.38;;;21.60;99.90;;;;;;5041770;28;20051;-68
2023/07/07 08:25:59;;;;;;;3.33;1.23;;;21.60;99.90;;;;;;5041497;28;20082;-68
2023/07/07 08:28:25;;;;;;;2.72;1.65;;;21.90;99.90;;;;;;5041657;28;20116;-69
2023/07/07 08:30:50;;;;;;;4.80;1.77;;;21.90;99.90;;;;;;5041348;28;20060;-68
2023/07/07 08:33:16;;;;;;;5.45;2.33;;;22.00;99.90;;;;;;5041796;28;20021;-68
2023/07/07 08:35:42;;;;;;;4.88;1.60;;;22.20;99.90;;;;;;5041628;28;20036;-68
2023/07/07 08:38:07;;;;;;;3.95;1.48;;;22.20;99.90;;;;;;5041845;28;20024;-68
2023/07/07 08:40:43;;;;;;;5.32;1.45;;;22.20;99.90;;;;;;5041161;28;20064;-68
2023/07/07 08:43:10;;;;;;;4.47;1.35;;;22.30;99.90;;;;;;5041934;28;20029;-69
2023/07/07 08:45:38;;;;;;;2.13;1.38;;;22.30;99.90;;;;;;5041897;28;20025;-69
2023/07/07 08:48:40;;;;;;;6.03;1.67;;;22.50;99.90;;;;;;5041001;28;20078;-69
2023/07/07 08:51:16;;;;;;;3.25;1.40;;;22.70;99.90;;;;;;5041440;28;20040;-69
2023/07/07 08:54:02;;;;;;;2.88;1.50;;;23.10;99.90;;;;;;5058586;28;20070;-69
2023/07/07 08:56:38;;;;;;;2.88;1.73;;;23.30;99.90;;;;;;5041662;28;20032;-69
2023/07/07 08:59:22;;;;;;;4.45;1.92;;;23.30;99.90;;;;;;5040916;28;20040;-70
2023/07/07 09:02:01;;;;;;;3.10;1.30;;;23.70;99.90;;;;;;5042015;28;20031;-70
2023/07/07 09:04:46;;;;;;;2.25;1.40;;;24.10;99.90;;;;;;5040893;28;20024;-69
2023/07/07 09:07:32;;;;;;;5.57;1.70;;;24.40;99.90;;;;;;5058440;28;20051;-71
2023/07/07 09:10:25;;;;;;;2.83;1.83;;;24.40;99.90;;;;;;5040684;28;20021;-70
2023/07/07 09:13:01;;;;;;;2.78;1.40;;;24.20;99.20;;;;;;5040666;28;20025;-70
2023/07/07 09:15:31;;;;;;;5.60;1.60;;;24.10;99.90;;;;;;5041176;28;20021;-70
2023/07/07 09:18:18;;;;;;;11.17;1.83;;;24.00;99.70;;;;;;5041392;28;20025;-70
2023/07/07 09:20:55;;;;;;;2.63;1.58;;;24.40;98.70;;;;;;5040641;28;20255;-69
2023/07/07 09:23:27;;;;;;;2.20;1.20;;;24.60;98.40;;;;;;5041301;28;20092;-69
2023/07/07 09:26:02;;;;;;;4.68;1.70;;;24.40;97.60;;;;;;5040916;28;20025;-70
2023/07/07 09:28:34;;;;;;;2.75;1.45;;;24.60;96.50;;;;;;5040380;28;20025;-69
2023/07/07 09:31:25;;;;;;;4.43;1.70;;;24.80;96.50;;;;;;5040379;28;20060;-70
2023/07/07 09:33:51;;;;;;;5.18;1.60;;;24.70;95.90;;;;;;5040336;28;20032;-70
2023/07/07 09:36:39;;;;;;;2.92;1.65;;;24.90;95.10;;;;;;5040103;28;20075;-70
2023/07/07 09:39:08;;;;;;;4.97;1.85;;;24.90;91.60;;;;;;5040148;28;20072;-70
2023/07/07 09:41:57;;;;;;;5.95;1.65;;;25.00;89.50;;;;;;5058142;28;20032;-70
2023/07/07 09:44:34;;;;;;;2.65;1.52;;;25.20;86.90;;;;;;5057891;28;20111;-70
2023/07/07 09:47:20;;;;;;;2.15;1.63;;;25.50;86.60;;;;;;5040819;28;20024;-70
2023/07/07 09:50:16;;;;;;;4.13;1.80;;;25.50;84.80;;;;;;5040233;28;20013;-69
2023/07/07 09:52:52;;;;;;;2.80;1.73;;;25.60;83.60;;;;;;5029264;28;20036;-70
2023/07/07 09:55:21;;;;;;;4.93;1.60;;;25.80;81.40;;;;;;5057681;28;20028;-69
2023/07/07 09:57:56;;;;;;;2.42;1.75;;;26.30;82.60;;;;;;5039758;28;20052;-69
2023/07/07 10:00:23;;;;;;;3.22;1.55;;;26.40;82.70;;;;;;5040331;28;20025;-69
2023/07/07 10:02:49;;;;;;;2.70;1.70;;;26.80;77.80;;;;;;5040080;28;20056;-70
2023/07/07 10:05:21;;;;;;;3.35;1.60;;;26.70;79.40;;;;;;5039655;28;20059;-69
2023/07/07 10:07:48;;;;;;;6.45;1.58;;;26.80;80.40;;;;;;5039821;28;20027;-69
2023/07/07 10:10:14;;;;;;;2.33;1.60;;;27.00;79.50;;;;;;5040115;28;20021;-70
2023/07/07 10:12:41;;;;;;;5.22;1.77;;;27.20;77.20;;;;;;5040302;28;20017;-70
2023/07/07 10:15:34;;;;;;;3.10;1.67;;;27.00;75.90;;;;;;5057193;28;20028;-70
2023/07/07 10:18:19;;;;;;;3.45;1.60;;;26.80;73.80;;;;;;5039675;28;20025;-70
2023/07/07 10:20:44;;;;;;;3.25;2.05;;;26.90;73.80;;;;;;5039959;28;20021;-71
2023/07/07 10:23:14;;;;;;;5.45;2.20;;;27.00;75.20;;;;;;5039598;28;20043;-72
2023/07/07 10:25:44;;;;;;;2.65;1.80;;;27.10;72.30;;;;;;5039989;28;20017;-71
2023/07/07 10:28:14;;;;;;;3.55;2.03;;;27.20;74.20;;;;;;5039554;28;20021;-71
2023/07/07 10:30:41;;;;;;;2.77;2.23;;;27.30;71.50;;;;;;5057514;28;20095;-71
2023/07/07 10:33:16;;;;;;;4.65;1.85;;;27.30;70.70;;;;;;5039460;28;20017;-71
2023/07/07 10:35:43;;;;;;;3.00;1.90;;;27.30;71.50;;;;;;5039958;28;20035;-71
2023/07/07 10:38:10;;;;;;;2.40;1.90;;;27.50;71.00;;;;;;5056841;28;20102;-71
2023/07/07 10:40:41;;;;;;;2.85;1.73;;;27.70;71.50;;;;;;5039552;28;20115;-72
2023/07/07 10:43:14;;;;;;;2.58;1.60;;;27.90;71.20;;;;;;5040099;28;20021;-71
2023/07/07 10:45:44;;;;;;;4.53;2.15;;;28.20;71.50;;;;;;5039318;28;20021;-71
2023/07/07 10:48:12;;;;;;;7.75;2.30;;;28.50;69.70;;;;;;5057062;28;20017;-71
2023/07/07 10:50:56;;;;;;;3.47;1.90;;;28.80;68.40;;;;;;5039136;28;20029;-71
2023/07/07 10:53:27;;;;;;;3.40;2.22;;;28.90;68.80;;;;;;5039117;28;20128;-71
2023/07/07 10:56:13;;;;;;;8.82;2.38;;;29.10;69.60;;;;;;5056876;28;20090;-72
2023/07/07 10:58:54;;;;;;;4.30;2.85;;;29.50;69.10;;;;;;5057147;28;20021;-71
2023/07/07 11:01:41;;;;;;;4.45;2.33;;;29.70;65.10;;;;;;5041238;28;20147;-72
2023/07/07 11:04:32;;;;;;;5.03;2.63;;;29.40;65.20;;;;;;5043679;28;20037;-71
2023/07/07 11:07:13;;;;;;;4.32;2.53;;;31.10;63.10;;;;;;5054815;23;20045;-67
2023/07/07 11:10:10;;;;;;;3.10;2.60;;;31.90;62.20;;;;;;5039590;28;20029;-67
2023/07/07 11:12:42;;;;;;;3.55;2.28;;;32.60;60.30;;;;;;5039484;28;20029;-68
2023/07/07 11:15:37;;;;;;;4.57;2.47;;;32.40;59.20;;;;;;5040320;28;20017;-67
2023/07/07 11:18:22;;;;;;;3.78;2.28;;;33.00;58.00;;;;;;5039514;28;20022;-67
2023/07/07 11:21:06;;;;;;;4.45;2.53;;;33.40;57.20;;;;;;5040136;28;20024;-67
2023/07/07 11:24:10;;;;;;;2.63;1.98;;;33.90;55.30;;;;;;5039301;28;20033;-67
2023/07/07 11:27:06;;;;;;;5.32;2.40;;;33.60;56.00;;;;;;5038617;28;20037;-67
2023/07/07 11:29:42;;;;;;;6.38;2.72;;;34.20;55.50;;;;;;5039920;28;20061;-67
2023/07/07 11:32:47;;;;;;;4.45;2.22;;;33.50;55.00;;;;;;5040016;28;20025;-67
2023/07/07 11:35:29;;;;;;;2.85;2.15;;;33.70;54.20;;;;;;5039969;28;20026;-67
2023/07/07 11:38:31;;;;;;;3.00;1.92;;;32.70;54.90;;;;;;5039872;28;20121;-67
2023/07/07 11:41:11;;;;;;;3.65;2.08;;;31.90;55.00;;;;;;5039066;28;20022;-68
2023/07/07 11:43:39;;;;;;;4.57;2.05;;;32.10;56.10;;;;;;5039093;28;20021;-67
2023/07/07 11:46:08;;;;;;;6.72;2.40;;;33.10;54.90;;;;;;5038859;28;20017;-67
2023/07/07 11:48:47;;;;;;;6.22;2.53;;;32.70;56.10;;;;;;5038763;28;20114;-67
2023/07/07 11:51:26;;;;;;;2.92;2.20;;;32.50;56.30;;;;;;5038751;28;20033;-67
2023/07/07 11:54:15;;;;;;;3.05;2.40;;;33.30;54.80;;;;;;5039957;28;20021;-67
2023/07/07 11:57:18;;;;;;;3.33;2.47;;;34.00;54.20;;;;;;5002151;28;20066;-67
2023/07/07 11:59:43;;;;;;;3.05;2.28;;;33.70;54.30;;;;;;5038628;28;20026;-67
2023/07/07 12:02:19;;;;;;;5.53;2.40;;;33.10;53.70;;;;;;5038550;28;20033;-67
2023/07/07 12:04:46;;;;;;;3.33;2.50;;;33.00;54.10;;;;;;5038862;28;20032;-68
2023/07/07 12:07:20;;;;;;;3.60;2.25;;;33.90;52.90;;;;;;5038336;28;20029;-67
2023/07/07 12:09:53;;;;;;;2.83;1.95;;;34.70;51.20;;;;;;5039407;28;20024;-67
2023/07/07 12:12:38;;;;;;;4.22;2.50;;;34.10;50.20;;;;;;5038397;28;20025;-67
2023/07/07 12:15:04;;;;;;;4.07;2.47;;;34.50;50.00;;;;;;5038261;28;20025;-67
2023/07/07 12:17:36;;;;;;;5.20;2.60;;;34.90;49.00;;;;;;5038987;28;20078;-67
2023/07/07 12:20:34;;;;;;;2.95;2.58;;;34.00;50.60;;;;;;5039007;28;20025;-67
2023/07/07 12:23:04;;;;;;;3.53;2.45;;;33.20;49.00;;;;;;5034962;28;20045;-67
2023/07/07 12:25:30;;;;;;;5.43;2.70;;;32.80;51.10;;;;;;5038286;28;20021;-67
2023/07/07 12:27:57;;;;;;;3.65;2.55;;;32.80;51.40;;;;;;5038428;28;20028;-67
2023/07/07 12:30:24;;;;;;;6.15;2.65;;;32.70;51.00;;;;;;5038042;28;20093;-67
2023/07/07 12:32:51;;;;;;;7.20;2.75;;;33.60;50.10;;;;;;5038345;28;20033;-67
2023/07/07 12:35:46;;;;;;;3.22;2.40;;;33.60;49.80;;;;;;5037870;28;20036;-67
2023/07/07 12:38:30;;;;;;;3.13;2.60;;;34.10;48.60;;;;;;5029298;28;20040;-67
2023/07/07 12:41:02;;;;;;;4.70;2.70;;;34.20;47.40;;;;;;5037902;28;20029;-67
2023/07/07 12:43:31;;;;;;;4.18;2.90;;;33.70;47.50;;;;;;5037893;28;20045;-68
2023/07/07 12:45:57;;;;;;;5.43;2.45;;;33.20;48.60;;;;;;5037501;28;20052;-67
2023/07/07 12:48:26;;;;;;;3.83;2.97;;;32.80;49.20;;;;;;5038089;28;20018;-67
2023/07/07 12:50:59;;;;;;;3.90;2.90;;;32.30;49.50;;;;;;5037672;28;20025;-67
2023/07/07 12:53:24;;;;;;;3.72;2.45;;;32.00;49.70;;;;;;5039164;28;20013;-66
2023/07/07 12:55:59;;;;;;;6.43;2.90;;;31.70;51.20;;;;;;5037457;28;20120;-67
2023/07/07 12:58:36;;;;;;;8.57;3.20;;;31.60;51.40;;;;;;5037567;28;20033;-67
2023/07/07 13:01:08;;;;;;;3.22;2.53;;;31.60;51.10;;;;;;5037553;28;20033;-67
2023/07/07 13:03:42;;;;;;;5.43;3.00;;;31.60;51.00;;;;;;5038393;28;20025;-67
2023/07/07 13:06:36;;;;;;;5.32;3.22;;;31.50;51.20;;;;;;5038360;28;20088;-67